This is the latest recevied weather packets stored in our database for station/object SP5IZJ-2. If no packets are shown the sender has not sent any weather packets the latest 1 day(s).
| Time | Temp. | Humidity | Pressure | Rain* | Wind** | Luminosity | Snow |
|---|---|---|---|---|---|---|---|
| 1778047707 | 20.56° C | 58% | 997.5 hPa | 0 mm | - | - | - |
| 1778046868 | 19.44° C | 60% | 997.7 hPa | 0 mm | - | - | - |
| 1778041830 | 12.22° C | 84% | 997.9 hPa | 0 mm | - | - | - |
| 1778040990 | 10° C | 82% | 998.1 hPa | 0 mm | - | - | - |
| 1778040572 | 10° C | 82% | 998.1 hPa | 0 mm | - | - | - |
| 1778039737 | 10° C | 82% | 998.2 hPa | 0 mm | - | - | - |
| 1778039311 | 10° C | 82% | 998.1 hPa | 0 mm | - | - | - |
| 1778038895 | 9.44° C | 82% | 998.2 hPa | 0 mm | - | - | - |
| 1778038473 | 9.44° C | 83% | 998.3 hPa | 0 mm | - | - | - |
| 1778036792 | 100° C | 100% | 0 hPa | 0 mm | - | - | - |
| 1778035539 | 8.33° C | 82% | 998.4 hPa | 0 mm | - | - | - |
| 1778035115 | 8.33° C | 82% | 998.3 hPa | 0 mm | - | - | - |
| 1778034273 | 8.33° C | 81% | 998.7 hPa | 0 mm | - | - | - |
| 1778032601 | 9.44° C | 81% | 998.7 hPa | 0 mm | - | - | - |
| 1778031759 | 9.44° C | 81% | 998.6 hPa | 0 mm | - | - | - |
| 1778031334 | 9.44° C | 81% | 998.5 hPa | 0 mm | - | - | - |
| 1778030914 | 9.44° C | 81% | 998.8 hPa | 0 mm | - | - | - |
| 1778030499 | 9.44° C | 81% | 998.8 hPa | 0 mm | - | - | - |
| 1778029661 | 9.44° C | 81% | 998.7 hPa | 0 mm | - | - | - |
| 1778027136 | 10° C | 82% | 998.6 hPa | 0 mm | - | - | - |
| 1778026716 | 10.56° C | 83% | 998.7 hPa | 0 mm | - | - | - |
| 1778025037 | 11.11° C | 83% | 998.7 hPa | 0 mm | - | - | - |
| 1778024617 | 11.11° C | 82% | 998.6 hPa | 0 mm | - | - | - |
| 1778024197 | 11.11° C | 82% | 998.6 hPa | 0 mm | - | - | - |
| 1778023362 | 11.67° C | 81% | 998.6 hPa | 0 mm | - | - | - |
* Rain latest hour (hover to see other rain measurements)
** Current wind speed in m/s (hover to see current wind gust speed)